createdAt,value
2019-06-07T00:00:37.303Z,0.00
2019-06-07T00:01:20.762Z,0.00
2019-06-07T00:02:16.834Z,0.00
2019-06-07T00:03:27.426Z,0.00
2019-06-07T00:04:21.310Z,0.00
2019-06-07T00:05:19.597Z,0.00
2019-06-07T00:06:24.370Z,0.00
2019-06-07T00:07:21.448Z,0.00
2019-06-07T00:08:24.880Z,0.00
2019-06-07T00:09:22.107Z,0.00
2019-06-07T00:10:35.260Z,0.00
2019-06-07T00:11:20.462Z,0.00
2019-06-07T00:12:17.656Z,0.00
2019-06-07T00:13:19.837Z,0.00
2019-06-07T00:14:18.837Z,0.00
2019-06-07T00:15:26.894Z,0.00
2019-06-07T00:16:22.802Z,0.00
2019-06-07T00:17:20.106Z,0.00
2019-06-07T00:18:25.326Z,0.00
2019-06-07T00:19:18.958Z,0.00
2019-06-07T00:20:22.620Z,0.00
2019-06-07T00:21:20.150Z,0.00
2019-06-07T00:22:29.649Z,0.00
2019-06-07T00:23:20.687Z,0.00
2019-06-07T00:24:18.716Z,0.00
2019-06-07T00:25:22.843Z,0.00
2019-06-07T00:26:21.138Z,0.00
2019-06-07T00:27:18.300Z,0.00
2019-06-07T00:28:17.377Z,0.00
2019-06-07T00:29:18.538Z,0.00
2019-06-07T00:30:40.114Z,0.00
2019-06-07T00:31:22.359Z,0.00
2019-06-07T00:32:19.984Z,0.00
2019-06-07T00:33:19.251Z,0.00
2019-06-07T00:34:20.039Z,0.00
2019-06-07T00:35:20.612Z,0.00
2019-06-07T00:36:18.237Z,0.00
2019-06-07T00:37:19.356Z,0.00
2019-06-07T00:38:18.964Z,0.00
2019-06-07T00:39:21.897Z,0.00
2019-06-07T00:40:27.130Z,0.00
2019-06-07T00:41:20.213Z,0.00
2019-06-07T00:42:17.482Z,0.00
2019-06-07T00:43:17.598Z,0.00
2019-06-07T00:44:19.909Z,0.00
2019-06-07T00:45:21.093Z,0.00
2019-06-07T00:46:18.139Z,0.00
2019-06-07T00:47:18.735Z,0.00
2019-06-07T00:48:27.467Z,0.00
2019-06-07T00:49:32.349Z,0.00
2019-06-07T00:50:21.919Z,0.00
2019-06-07T00:51:18.977Z,0.00
2019-06-07T00:52:58.580Z,0.00
2019-06-07T00:53:22.695Z,0.00
2019-06-07T00:54:19.822Z,0.00
2019-06-07T00:55:18.135Z,0.00
2019-06-07T00:56:16.357Z,0.00
2019-06-07T00:57:16.742Z,0.00
2019-06-07T00:58:17.964Z,0.00
2019-06-07T00:59:19.140Z,0.00
2019-06-07T01:00:21.890Z,0.00
2019-06-07T01:01:20.099Z,0.00
2019-06-07T01:02:18.209Z,0.00
2019-06-07T01:03:17.449Z,0.00
2019-06-07T01:04:19.379Z,0.00
2019-06-07T01:05:20.373Z,0.00
2019-06-07T01:06:22.639Z,0.00
2019-06-07T01:07:18.748Z,0.00
2019-06-07T01:08:21.519Z,0.00
2019-06-07T01:09:17.775Z,0.00
2019-06-07T01:10:17.346Z,0.00
2019-06-07T01:11:20.612Z,0.00
2019-06-07T01:12:19.442Z,0.00
2019-06-07T01:13:17.209Z,0.00
2019-06-07T01:14:20.316Z,0.00
2019-06-07T01:15:20.507Z,0.00
2019-06-07T01:16:18.771Z,0.00
2019-06-07T01:17:30.364Z,0.00
2019-06-07T01:18:38.183Z,0.00
2019-06-07T01:19:18.751Z,0.00
2019-06-07T01:20:16.711Z,0.00
2019-06-07T01:21:19.922Z,0.00
2019-06-07T01:22:18.402Z,0.00
2019-06-07T01:23:57.873Z,0.00
2019-06-07T01:24:17.586Z,0.00
2019-06-07T01:25:15.920Z,0.00
2019-06-07T01:26:18.938Z,0.00
2019-06-07T01:27:17.078Z,0.00
2019-06-07T01:28:16.666Z,0.00
2019-06-07T01:29:17.730Z,0.00
2019-06-07T01:30:16.215Z,0.00
2019-06-07T01:31:17.728Z,0.00
2019-06-07T01:32:17.479Z,0.00
2019-06-07T01:33:15.967Z,0.00
2019-06-07T01:34:16.122Z,0.00
2019-06-07T01:35:16.595Z,0.00
2019-06-07T01:36:17.885Z,0.00
2019-06-07T01:37:16.851Z,0.00
2019-06-07T01:38:17.229Z,0.00
2019-06-07T01:39:18.458Z,0.00
2019-06-07T01:40:17.229Z,0.00
2019-06-07T01:41:17.385Z,0.00
2019-06-07T01:42:18.167Z,0.00
2019-06-07T01:43:17.009Z,0.00
2019-06-07T01:44:17.670Z,0.00
2019-06-07T01:45:18.047Z,0.00
2019-06-07T01:46:15.844Z,0.00
2019-06-07T01:47:17.693Z,0.00
2019-06-07T01:48:20.729Z,0.00
2019-06-07T01:49:15.713Z,0.00
2019-06-07T01:50:17.064Z,0.00
2019-06-07T01:51:15.718Z,0.00
2019-06-07T01:52:16.620Z,0.00
2019-06-07T01:53:15.595Z,0.00
2019-06-07T01:55:18.649Z,0.00
2019-06-07T01:56:18.409Z,0.00
2019-06-07T01:57:31.034Z,0.00
2019-06-07T01:58:17.051Z,0.00
2019-06-07T01:59:15.548Z,0.00
2019-06-07T02:00:15.668Z,0.00
2019-06-07T02:01:15.557Z,0.00
2019-06-07T02:02:15.484Z,0.00
2019-06-07T02:03:15.477Z,0.00
2019-06-07T02:04:15.720Z,0.00
2019-06-07T02:05:15.469Z,0.00
2019-06-07T02:06:15.967Z,0.00
2019-06-07T02:07:15.445Z,0.00
2019-06-07T02:08:15.439Z,0.00
2019-06-07T02:09:15.427Z,0.00
2019-06-07T02:10:15.464Z,0.00
2019-06-07T02:11:20.926Z,0.00
2019-06-07T02:12:25.533Z,0.00
2019-06-07T02:13:16.375Z,0.00
2019-06-07T02:14:15.379Z,0.00
2019-06-07T02:15:15.398Z,0.00
2019-06-07T02:16:15.345Z,0.00
2019-06-07T02:17:15.542Z,0.00
2019-06-07T02:18:15.344Z,0.00
2019-06-07T02:19:15.318Z,0.00
2019-06-07T02:20:16.651Z,0.00
2019-06-07T02:21:15.405Z,0.00
2019-06-07T02:22:15.274Z,0.00
2019-06-07T02:23:15.316Z,0.00
2019-06-07T02:24:15.386Z,0.00
2019-06-07T02:26:16.246Z,0.00
2019-06-07T02:27:15.246Z,0.00
2019-06-07T02:28:29.896Z,0.00
2019-06-07T02:29:16.228Z,0.00
2019-06-07T02:31:18.091Z,0.00
2019-06-07T02:32:15.178Z,4.00
2019-06-07T02:33:15.390Z,4.00
2019-06-07T02:34:15.179Z,4.00
2019-06-07T02:35:15.200Z,4.00
2019-06-07T02:36:15.189Z,0.00
2019-06-07T02:37:15.173Z,4.00
2019-06-07T02:38:15.297Z,4.00
2019-06-07T02:39:15.946Z,4.00
2019-06-07T02:40:15.075Z,8.00
2019-06-07T02:41:15.076Z,4.00
2019-06-07T02:42:15.071Z,4.00
2019-06-07T02:43:15.232Z,8.00
2019-06-07T02:44:15.317Z,8.00
2019-06-07T02:45:15.056Z,8.00
2019-06-07T02:46:26.542Z,8.00
2019-06-07T02:47:15.996Z,12.00
2019-06-07T02:48:24.500Z,12.00
2019-06-07T02:49:16.715Z,12.00
2019-06-07T02:50:16.179Z,16.00
2019-06-07T02:51:15.149Z,16.00
2019-06-07T02:52:15.111Z,20.00
2019-06-07T02:53:15.091Z,24.00
2019-06-07T02:54:15.043Z,28.00
2019-06-07T02:55:15.218Z,32.00
2019-06-07T02:57:16.014Z,36.00
2019-06-07T02:58:14.971Z,44.00
2019-06-07T02:59:14.900Z,48.00
2019-06-07T03:00:41.328Z,52.00
2019-06-07T03:01:16.060Z,64.00
2019-06-07T03:02:15.090Z,68.00
2019-06-07T03:03:15.008Z,72.00
2019-06-07T03:04:14.944Z,84.00
2019-06-07T03:05:14.837Z,92.00
2019-06-07T03:06:15.001Z,104.00
2019-06-07T03:07:15.079Z,112.00
2019-06-07T03:08:14.873Z,128.00
2019-06-07T03:09:14.875Z,136.00
2019-06-07T03:10:14.789Z,152.00
2019-06-07T03:11:14.812Z,168.00
2019-06-07T03:12:14.770Z,180.00
2019-06-07T03:13:14.821Z,200.00
2019-06-07T03:14:14.797Z,220.00
2019-06-07T03:15:32.134Z,240.00
2019-06-07T03:16:15.755Z,260.00
2019-06-07T03:17:14.946Z,284.00
2019-06-07T03:18:14.734Z,304.00
2019-06-07T03:19:14.706Z,328.00
2019-06-07T03:20:15.548Z,352.00
2019-06-07T03:21:15.558Z,380.00
2019-06-07T03:22:14.718Z,412.00
2019-06-07T03:23:14.730Z,436.00
2019-06-07T03:24:14.698Z,460.00
2019-06-07T03:25:14.699Z,488.00
2019-06-07T03:26:14.656Z,516.00
2019-06-07T03:27:36.083Z,548.00
2019-06-07T03:28:16.502Z,572.00
2019-06-07T03:29:14.592Z,596.00
2019-06-07T03:31:15.613Z,644.00
2019-06-07T03:32:14.570Z,672.00
2019-06-07T03:33:14.784Z,700.00
2019-06-07T03:34:14.563Z,732.00
2019-06-07T03:35:14.670Z,764.00
2019-06-07T03:36:23.987Z,792.00
2019-06-07T03:37:15.508Z,828.00
2019-06-07T03:38:14.554Z,864.00
2019-06-07T03:39:14.563Z,900.00
2019-06-07T03:40:14.498Z,928.00
2019-06-07T03:41:14.483Z,960.00
2019-06-07T03:42:14.441Z,980.00
2019-06-07T03:43:14.458Z,1000.00
2019-06-07T03:44:14.472Z,1024.00
2019-06-07T03:45:14.770Z,1048.00
2019-06-07T03:46:14.513Z,1068.00
2019-06-07T03:47:15.409Z,1100.00
2019-06-07T03:48:14.492Z,1132.00
2019-06-07T03:49:14.373Z,1164.00
2019-06-07T03:50:14.384Z,1188.00
2019-06-07T03:51:24.511Z,1208.00
2019-06-07T03:52:15.337Z,1248.00
2019-06-07T03:53:14.478Z,1280.00
2019-06-07T03:54:14.411Z,1308.00
2019-06-07T03:55:14.388Z,1336.00
2019-06-07T03:56:15.241Z,1360.00
2019-06-07T03:57:14.334Z,1380.00
2019-06-07T03:58:31.944Z,1412.00
2019-06-07T03:59:15.433Z,1444.00
2019-06-07T04:00:14.348Z,1480.00
2019-06-07T04:01:14.222Z,1500.00
2019-06-07T04:02:14.500Z,1524.00
2019-06-07T04:03:33.067Z,1572.00
2019-06-07T04:04:15.233Z,1588.00
2019-06-07T04:05:14.214Z,1620.00
2019-06-07T04:06:14.234Z,1656.00
2019-06-07T04:07:14.183Z,1688.00
2019-06-07T04:08:15.123Z,1724.00
2019-06-07T04:09:14.141Z,1764.00
2019-06-07T04:10:14.241Z,1808.00
2019-06-07T04:11:14.217Z,1852.00
2019-06-07T04:12:14.113Z,1904.00
2019-06-07T04:13:14.155Z,1932.00
2019-06-07T04:14:14.124Z,1968.00
2019-06-07T04:15:14.095Z,2004.00
2019-06-07T04:16:14.233Z,2052.00
2019-06-07T04:17:14.187Z,2084.00
2019-06-07T04:18:19.760Z,2112.00
2019-06-07T04:19:14.165Z,2160.00
2019-06-07T04:20:14.074Z,2232.00
2019-06-07T04:21:14.003Z,2284.00
2019-06-07T04:22:14.079Z,2260.00
2019-06-07T04:23:27.630Z,2304.00
2019-06-07T04:24:15.007Z,2320.00
2019-06-07T04:25:14.082Z,2376.00
2019-06-07T04:26:14.047Z,2368.00
2019-06-07T04:27:13.969Z,2404.00
2019-06-07T04:28:14.003Z,2404.00
2019-06-07T04:30:14.998Z,2412.00
2019-06-07T04:31:13.965Z,2404.00
2019-06-07T04:32:13.979Z,2408.00
2019-06-07T04:33:13.964Z,2420.00
2019-06-07T04:34:13.953Z,2400.00
2019-06-07T04:35:13.964Z,2400.00
2019-06-07T04:36:13.915Z,2412.00
2019-06-07T04:37:13.843Z,2432.00
2019-06-07T04:38:14.098Z,2448.00
2019-06-07T04:39:13.877Z,2476.00
2019-06-07T04:40:13.985Z,2512.00
2019-06-07T04:41:13.859Z,2540.00
2019-06-07T04:42:13.930Z,2588.00
2019-06-07T04:43:13.814Z,2604.00
2019-06-07T04:44:13.813Z,2644.00
2019-06-07T04:45:33.113Z,2748.00
2019-06-07T04:46:15.060Z,2736.00
2019-06-07T04:47:13.748Z,2800.00
2019-06-07T04:48:13.754Z,2860.00
2019-06-07T04:49:13.737Z,2880.00
2019-06-07T04:50:13.724Z,2920.00
2019-06-07T04:51:13.808Z,2976.00
2019-06-07T04:52:13.673Z,3032.00
2019-06-07T04:53:13.828Z,3104.00
2019-06-07T04:54:13.704Z,3164.00
2019-06-07T04:55:13.823Z,3228.00
2019-06-07T04:56:13.671Z,3260.00
2019-06-07T04:57:13.608Z,3308.00
2019-06-07T04:58:13.641Z,3328.00
2019-06-07T04:59:13.591Z,3340.00
2019-06-07T05:00:46.625Z,3400.00
2019-06-07T05:01:26.794Z,3444.00
2019-06-07T05:02:14.600Z,3536.00
2019-06-07T05:03:13.582Z,3656.00
2019-06-07T05:04:13.710Z,3784.00
2019-06-07T05:05:13.612Z,3884.00
2019-06-07T05:06:13.608Z,4016.00
2019-06-07T05:07:13.560Z,4172.00
2019-06-07T05:08:27.621Z,4276.00
2019-06-07T05:09:14.525Z,4392.00
2019-06-07T05:10:13.464Z,4444.00
2019-06-07T05:11:13.541Z,4532.00
2019-06-07T05:12:13.525Z,4636.00
2019-06-07T05:13:13.474Z,4780.00
2019-06-07T05:14:13.480Z,4936.00
2019-06-07T05:15:13.499Z,5120.00
2019-06-07T05:16:13.436Z,5244.00
2019-06-07T05:17:13.557Z,5448.00
2019-06-07T05:18:13.409Z,5404.00
2019-06-07T05:19:13.420Z,5444.00
2019-06-07T05:20:13.430Z,5524.00
2019-06-07T05:21:13.373Z,5436.00
2019-06-07T05:22:13.437Z,5152.00
2019-06-07T05:23:59.400Z,4932.00
2019-06-07T05:24:14.334Z,4592.00
2019-06-07T05:25:13.428Z,4516.00
2019-06-07T05:26:14.485Z,4480.00
2019-06-07T05:27:13.387Z,4416.00
2019-06-07T05:28:13.365Z,4376.00
2019-06-07T05:29:13.318Z,4412.00
2019-06-07T05:30:57.732Z,4144.00
2019-06-07T05:31:14.325Z,4012.00
2019-06-07T05:32:13.308Z,3956.00
2019-06-07T05:33:13.422Z,4092.00
2019-06-07T05:34:13.376Z,3964.00
2019-06-07T05:35:13.265Z,4084.00
2019-06-07T05:36:13.242Z,4176.00
2019-06-07T05:37:13.196Z,4348.00
2019-06-07T05:38:13.293Z,4396.00
2019-06-07T05:39:13.202Z,4400.00
2019-06-07T05:40:13.186Z,4436.00
2019-06-07T05:41:13.184Z,4388.00
2019-06-07T05:42:13.342Z,11696.00
2019-06-07T05:43:13.223Z,6904.00
2019-06-07T05:44:14.980Z,8040.00
2019-06-07T05:45:13.153Z,13232.00
2019-06-07T05:46:13.150Z,14272.00
2019-06-07T05:47:13.079Z,15936.00
2019-06-07T05:48:13.344Z,16096.00
2019-06-07T05:49:13.343Z,16032.00
2019-06-07T05:50:38.659Z,15776.00
2019-06-07T05:51:14.105Z,14400.00
2019-06-07T05:52:13.087Z,12460.00
2019-06-07T05:53:13.016Z,13228.00
2019-06-07T05:54:13.929Z,12720.00
2019-06-07T05:55:13.027Z,10912.00
2019-06-07T05:56:13.398Z,9812.00
2019-06-07T05:57:12.965Z,11924.00
2019-06-07T05:58:13.083Z,11368.00
2019-06-07T05:59:13.361Z,8500.00
2019-06-07T06:00:13.339Z,8148.00
2019-06-07T06:01:42.361Z,8740.00
2019-06-07T06:02:22.169Z,6112.00
2019-06-07T06:03:13.878Z,4656.00
2019-06-07T06:04:12.848Z,4600.00
2019-06-07T06:05:32.749Z,4560.00
2019-06-07T06:06:13.936Z,4488.00
2019-06-07T06:07:12.849Z,4516.00
2019-06-07T06:08:12.955Z,4528.00
2019-06-07T06:09:14.120Z,4560.00
2019-06-07T06:10:12.821Z,4568.00
2019-06-07T06:11:12.782Z,4536.00
2019-06-07T06:12:12.771Z,4504.00
2019-06-07T06:13:12.803Z,4480.00
2019-06-07T06:14:12.779Z,4396.00
2019-06-07T06:15:12.742Z,4452.00
2019-06-07T06:16:12.746Z,4456.00
2019-06-07T06:17:12.722Z,4460.00
2019-06-07T06:18:12.690Z,4484.00
2019-06-07T06:19:12.723Z,4512.00
2019-06-07T06:20:12.702Z,4552.00
2019-06-07T06:21:19.191Z,4552.00
2019-06-07T06:22:13.682Z,4568.00
2019-06-07T06:23:12.650Z,4548.00
2019-06-07T06:24:12.632Z,4508.00
2019-06-07T06:26:13.680Z,4568.00
2019-06-07T06:27:41.374Z,4672.00
2019-06-07T06:28:16.219Z,4756.00
2019-06-07T06:29:12.601Z,4864.00
2019-06-07T06:30:12.560Z,4864.00
2019-06-07T06:31:12.834Z,5112.00
2019-06-07T06:32:41.212Z,5112.00
2019-06-07T06:33:30.485Z,5212.00
2019-06-07T06:34:13.542Z,5200.00
2019-06-07T06:35:12.532Z,5396.00
2019-06-07T06:36:12.503Z,5616.00
2019-06-07T06:37:12.637Z,5724.00
2019-06-07T06:38:12.917Z,5716.00
2019-06-07T06:39:13.309Z,5676.00
2019-06-07T06:40:12.452Z,5748.00
2019-06-07T06:41:16.323Z,5660.00
2019-06-07T06:42:12.484Z,5720.00
2019-06-07T06:43:12.488Z,5924.00
2019-06-07T06:44:12.423Z,6096.00
2019-06-07T06:45:12.436Z,6264.00
2019-06-07T06:46:12.400Z,6512.00
2019-06-07T06:47:12.412Z,6736.00
2019-06-07T06:48:12.419Z,6836.00
2019-06-07T06:49:14.717Z,7100.00
2019-06-07T06:50:12.603Z,7208.00
2019-06-07T06:51:13.007Z,7332.00
2019-06-07T06:52:12.324Z,7420.00
2019-06-07T06:53:13.500Z,7948.00
2019-06-07T06:54:12.310Z,8024.00
2019-06-07T06:55:12.304Z,9240.00
2019-06-07T06:56:12.278Z,9856.00
2019-06-07T06:57:19.536Z,10032.00
2019-06-07T06:58:13.294Z,10364.00
2019-06-07T06:59:37.467Z,9836.00
2019-06-07T07:00:13.230Z,9656.00
2019-06-07T07:01:12.249Z,9628.00
2019-06-07T07:02:12.224Z,9656.00
2019-06-07T07:04:13.801Z,9812.00
2019-06-07T07:05:12.190Z,9868.00
2019-06-07T07:06:25.237Z,9384.00
2019-06-07T07:07:13.154Z,9196.00
2019-06-07T07:08:12.152Z,9096.00
2019-06-07T07:09:12.188Z,9164.00
2019-06-07T07:10:12.146Z,9364.00
2019-06-07T07:11:12.131Z,9712.00
2019-06-07T07:12:14.831Z,10012.00
2019-06-07T07:13:12.101Z,9956.00
2019-06-07T07:14:12.185Z,9536.00
2019-06-07T07:15:12.109Z,9352.00
2019-06-07T07:16:12.066Z,9300.00
2019-06-07T07:17:12.051Z,8872.00
2019-06-07T07:18:12.059Z,8780.00
2019-06-07T07:19:12.052Z,8608.00
2019-06-07T07:20:12.042Z,8560.00
2019-06-07T07:21:12.038Z,8556.00
2019-06-07T07:22:12.050Z,8744.00
2019-06-07T07:23:12.020Z,8956.00
2019-06-07T07:24:21.502Z,9660.00
2019-06-07T07:25:12.990Z,10128.00
2019-06-07T07:26:12.024Z,9892.00
2019-06-07T07:27:11.969Z,9864.00
2019-06-07T07:28:11.950Z,9336.00
2019-06-07T07:29:11.955Z,9220.00
2019-06-07T07:31:12.897Z,9992.00
2019-06-07T07:32:11.931Z,10408.00
2019-06-07T07:33:11.891Z,10024.00
2019-06-07T07:34:31.782Z,9668.00
2019-06-07T07:35:12.871Z,9396.00
2019-06-07T07:36:35.322Z,9788.00
2019-06-07T07:37:12.849Z,10804.00
2019-06-07T07:38:11.837Z,11152.00
2019-06-07T07:39:11.821Z,11216.00
2019-06-07T07:40:55.740Z,11696.00
2019-06-07T07:41:15.477Z,12128.00
2019-06-07T07:42:20.699Z,11964.00
2019-06-07T07:43:12.771Z,11412.00
2019-06-07T07:44:11.811Z,11252.00
2019-06-07T07:45:11.771Z,11176.00
2019-06-07T07:46:28.533Z,11060.00
2019-06-07T07:47:12.727Z,10736.00
2019-06-07T07:48:17.770Z,10984.00
2019-06-07T07:49:12.753Z,10952.00
2019-06-07T07:50:11.712Z,10860.00
2019-06-07T07:51:11.681Z,10816.00
2019-06-07T07:52:11.661Z,10772.00
2019-06-07T07:53:11.660Z,10768.00
2019-06-07T07:54:11.650Z,10536.00
2019-06-07T07:55:11.831Z,10176.00
2019-06-07T07:56:11.671Z,10500.00
2019-06-07T07:57:11.621Z,9796.00
2019-06-07T07:58:11.660Z,9952.00
2019-06-07T07:59:11.588Z,9672.00
2019-06-07T08:00:48.605Z,9380.00
2019-06-07T08:01:12.559Z,9148.00
2019-06-07T08:02:11.579Z,9340.00
2019-06-07T08:03:11.616Z,9656.00
2019-06-07T08:04:11.591Z,9244.00
2019-06-07T08:05:23.247Z,9356.00
2019-06-07T08:06:12.510Z,9224.00
2019-06-07T08:07:11.566Z,9124.00
2019-06-07T08:08:11.599Z,9432.00
2019-06-07T08:09:11.526Z,9428.00
2019-06-07T08:10:11.485Z,8836.00
2019-06-07T08:11:12.863Z,8456.00
2019-06-07T08:12:11.482Z,8604.00
2019-06-07T08:13:24.941Z,9384.00
2019-06-07T08:14:12.449Z,8388.00
2019-06-07T08:15:11.457Z,7792.00
2019-06-07T08:16:16.086Z,7632.00
2019-06-07T08:17:12.436Z,7892.00
2019-06-07T08:18:11.479Z,9328.00
2019-06-07T08:19:13.077Z,11488.00
2019-06-07T08:20:11.490Z,10748.00
2019-06-07T08:21:24.610Z,9108.00
2019-06-07T08:22:12.348Z,12368.00
2019-06-07T08:23:11.338Z,30016.00
2019-06-07T08:24:11.355Z,61408.00
2019-06-07T08:25:11.331Z,61472.00
2019-06-07T08:26:11.375Z,65120.00
2019-06-07T08:27:25.855Z,63680.00
2019-06-07T08:28:12.292Z,68480.00
2019-06-07T08:29:11.260Z,69952.00
2019-06-07T08:30:46.429Z,69120.00
2019-06-07T08:31:12.240Z,71200.00
2019-06-07T08:32:11.268Z,69472.00
2019-06-07T08:33:25.538Z,69664.00
2019-06-07T08:34:12.213Z,70848.00
2019-06-07T08:35:11.234Z,69984.00
2019-06-07T08:36:19.877Z,69024.00
2019-06-07T08:37:12.493Z,71104.00
2019-06-07T08:38:26.041Z,70944.00
2019-06-07T08:39:12.166Z,68576.00
2019-06-07T08:40:11.165Z,68864.00
2019-06-07T08:41:12.633Z,69536.00
2019-06-07T08:42:17.771Z,68704.00
2019-06-07T08:43:20.382Z,71296.00
2019-06-07T08:44:23.211Z,70624.00
2019-06-07T08:45:12.104Z,70560.00
2019-06-07T08:46:11.185Z,71648.00
2019-06-07T08:47:20.095Z,71840.00
2019-06-07T08:48:26.990Z,70656.00
2019-06-07T08:49:12.065Z,71040.00
2019-06-07T08:50:11.044Z,73408.00
2019-06-07T08:51:11.053Z,72800.00
2019-06-07T08:52:12.465Z,74688.00
2019-06-07T08:53:12.315Z,73376.00
2019-06-07T08:54:22.452Z,73856.00
2019-06-07T08:55:11.991Z,75936.00
2019-06-07T08:56:11.747Z,75680.00
2019-06-07T08:57:20.672Z,75616.00
2019-06-07T08:58:12.019Z,76512.00
2019-06-07T08:59:11.736Z,74944.00
2019-06-07T09:00:42.220Z,75520.00
2019-06-07T09:01:11.957Z,75776.00
2019-06-07T09:02:23.370Z,77504.00
2019-06-07T09:03:15.978Z,78016.00
2019-06-07T09:04:11.504Z,77504.00
2019-06-07T09:05:12.522Z,75232.00
2019-06-07T09:06:54.045Z,76128.00
2019-06-07T09:07:19.576Z,74688.00
2019-06-07T09:08:29.065Z,69568.00
2019-06-07T09:09:11.899Z,71360.00
2019-06-07T09:10:14.604Z,74144.00
2019-06-07T09:11:11.601Z,76544.00
2019-06-07T09:12:11.689Z,79296.00
2019-06-07T09:13:11.977Z,81472.00
2019-06-07T09:14:10.839Z,84384.00
2019-06-07T09:15:21.363Z,82976.00
2019-06-07T09:16:11.818Z,82080.00
2019-06-07T09:17:12.478Z,82688.00
2019-06-07T09:18:37.966Z,80768.00
2019-06-07T09:19:11.972Z,80640.00
2019-06-07T09:20:35.153Z,81568.00
2019-06-07T09:21:11.838Z,81600.00
2019-06-07T09:22:11.887Z,81152.00
2019-06-07T09:23:16.651Z,80992.00
2019-06-07T09:24:12.233Z,80288.00
2019-06-07T09:25:20.584Z,82272.00
2019-06-07T09:26:18.246Z,81920.00
2019-06-07T09:27:11.746Z,81152.00
2019-06-07T09:28:19.144Z,82016.00
2019-06-07T09:29:12.238Z,83264.00
2019-06-07T09:30:16.455Z,82752.00
2019-06-07T09:31:12.664Z,85056.00
2019-06-07T09:32:15.970Z,84480.00
2019-06-07T09:33:12.436Z,83488.00
2019-06-07T09:34:14.701Z,86656.00
2019-06-07T09:35:16.826Z,85152.00
2019-06-07T09:36:13.270Z,84896.00
2019-06-07T09:38:03.061Z,88512.00
2019-06-07T09:38:24.326Z,89504.00
2019-06-07T09:39:12.706Z,77760.00
2019-06-07T09:40:24.313Z,91136.00
2019-06-07T09:41:11.571Z,85984.00
2019-06-07T09:42:12.577Z,87648.00
2019-06-07T09:44:23.969Z,37856.00
2019-06-07T09:45:13.961Z,82240.00
2019-06-07T09:46:14.856Z,19840.00
2019-06-07T09:47:30.684Z,48000.00
2019-06-07T09:48:15.947Z,63232.00
2019-06-07T09:49:21.214Z,87552.00
2019-06-07T09:50:12.390Z,84864.00
2019-06-07T09:51:19.261Z,84448.00
2019-06-07T09:52:11.480Z,85696.00
2019-06-07T09:53:21.925Z,84320.00
2019-06-07T09:54:17.739Z,86048.00
2019-06-07T09:55:22.990Z,88640.00
2019-06-07T09:56:12.318Z,88320.00
2019-06-07T09:57:16.595Z,88128.00
2019-06-07T09:58:48.622Z,89088.00
2019-06-07T09:59:13.031Z,90400.00
2019-06-07T10:00:36.799Z,87776.00
2019-06-07T10:01:13.670Z,91584.00
2019-06-07T10:02:13.708Z,92448.00
2019-06-07T10:03:20.557Z,88512.00
2019-06-07T10:04:28.196Z,91520.00
2019-06-07T10:05:14.103Z,93792.00
2019-06-07T10:06:13.728Z,88704.00
2019-06-07T10:07:28.603Z,85984.00
2019-06-07T10:08:54.646Z,88416.00
2019-06-07T10:10:09.329Z,88224.00
2019-06-07T10:11:11.362Z,89568.00
2019-06-07T10:12:10.319Z,90976.00
2019-06-07T10:13:10.494Z,92096.00
2019-06-07T10:14:10.221Z,90016.00
2019-06-07T10:15:10.375Z,90432.00
2019-06-07T10:16:10.256Z,66336.00
2019-06-07T10:17:10.259Z,94112.00
2019-06-07T10:18:10.224Z,84000.00
2019-06-07T10:19:10.353Z,31808.00
2019-06-07T10:20:10.356Z,10288.00
2019-06-07T10:21:14.756Z,90496.00
2019-06-07T10:22:11.191Z,10756.00
2019-06-07T10:23:10.206Z,10276.00
2019-06-07T10:24:10.182Z,23712.00
2019-06-07T10:25:10.609Z,10392.00
2019-06-07T10:26:10.234Z,9976.00
2019-06-07T10:27:10.189Z,9920.00
2019-06-07T10:28:10.334Z,10160.00
2019-06-07T10:29:10.349Z,10184.00
2019-06-07T10:30:10.416Z,10044.00
2019-06-07T10:31:11.429Z,10260.00
2019-06-07T10:32:11.229Z,10208.00
2019-06-07T10:33:10.505Z,10468.00
2019-06-07T10:34:10.901Z,10776.00
2019-06-07T10:35:13.766Z,10372.00
2019-06-07T10:36:11.019Z,10596.00
2019-06-07T10:37:14.957Z,10348.00
2019-06-07T10:38:10.969Z,10452.00
2019-06-07T10:39:11.382Z,11464.00
2019-06-07T10:40:11.239Z,12624.00
2019-06-07T10:41:11.123Z,13800.00
2019-06-07T10:42:11.486Z,13800.00
2019-06-07T10:43:13.432Z,12524.00
2019-06-07T10:44:11.337Z,12148.00
2019-06-07T10:45:11.850Z,11732.00
2019-06-07T10:46:10.132Z,11748.00
2019-06-07T10:47:10.113Z,11700.00
2019-06-07T10:48:10.343Z,12036.00
2019-06-07T10:49:10.172Z,18624.00
2019-06-07T10:50:10.373Z,39360.00
2019-06-07T10:51:13.677Z,87072.00
2019-06-07T10:52:11.487Z,90912.00
2019-06-07T10:53:10.766Z,89664.00
2019-06-07T10:54:21.936Z,79488.00
2019-06-07T10:55:10.915Z,98784.00
2019-06-07T10:56:11.063Z,90784.00
2019-06-07T10:57:13.803Z,93696.00
2019-06-07T10:58:11.199Z,79936.00
2019-06-07T10:59:11.589Z,95392.00
2019-06-07T11:00:11.504Z,105920.00
2019-06-07T11:01:09.751Z,75424.00
2019-06-07T11:02:09.819Z,62656.00
2019-06-07T11:03:09.965Z,56000.00
2019-06-07T11:04:09.719Z,123872.00
2019-06-07T11:05:10.072Z,111904.00
2019-06-07T11:06:10.131Z,46528.00
2019-06-07T11:07:10.131Z,50144.00
2019-06-07T11:08:10.213Z,44224.00
2019-06-07T11:09:10.028Z,49568.00
2019-06-07T11:10:15.610Z,47648.00
2019-06-07T11:11:12.081Z,44896.00
2019-06-07T11:12:10.732Z,49056.00
2019-06-07T11:13:10.413Z,63360.00
2019-06-07T11:14:10.595Z,76192.00
2019-06-07T11:15:10.979Z,62048.00
2019-06-07T11:16:11.092Z,56576.00
2019-06-07T11:17:11.176Z,82144.00
2019-06-07T11:18:10.306Z,84832.00
2019-06-07T11:19:13.896Z,107552.00
2019-06-07T11:20:12.316Z,95392.00
2019-06-07T11:21:10.052Z,72608.00
2019-06-07T11:22:10.167Z,113888.00
2019-06-07T11:23:10.116Z,100288.00
2019-06-07T11:24:10.193Z,106080.00
2019-06-07T11:25:10.846Z,84544.00
2019-06-07T11:26:10.292Z,106880.00
2019-06-07T11:27:11.156Z,102976.00
2019-06-07T11:28:10.586Z,100992.00
2019-06-07T11:29:10.879Z,97472.00
2019-06-07T11:30:10.558Z,95936.00
2019-06-07T11:31:10.787Z,96672.00
2019-06-07T11:32:10.566Z,98528.00
2019-06-07T11:33:12.060Z,100608.00
2019-06-07T11:34:10.441Z,98944.00
2019-06-07T11:35:10.618Z,94784.00
2019-06-07T11:36:10.710Z,94688.00
2019-06-07T11:37:11.050Z,98048.00
2019-06-07T11:38:10.574Z,98560.00
2019-06-07T11:39:10.900Z,97952.00
2019-06-07T11:40:27.865Z,95712.00
2019-06-07T11:41:11.488Z,95808.00
2019-06-07T11:42:09.917Z,98688.00
2019-06-07T11:43:10.658Z,97216.00
2019-06-07T11:44:10.865Z,97568.00
2019-06-07T11:45:10.521Z,100352.00
2019-06-07T11:46:09.412Z,97440.00
2019-06-07T11:47:10.445Z,95744.00
2019-06-07T11:48:09.320Z,100192.00
2019-06-07T11:49:10.875Z,97792.00
2019-06-07T11:50:09.570Z,97376.00
2019-06-07T11:51:10.677Z,101856.00
2019-06-07T11:52:11.421Z,101440.00
2019-06-07T11:53:10.625Z,97024.00
2019-06-07T11:54:09.689Z,97408.00
2019-06-07T11:55:10.966Z,96800.00
2019-06-07T11:56:10.309Z,96640.00
2019-06-07T11:57:09.296Z,97408.00
2019-06-07T11:58:13.174Z,95744.00
2019-06-07T11:59:11.202Z,96064.00
2019-06-07T12:00:09.405Z,96608.00
2019-06-07T12:01:09.608Z,92832.00
2019-06-07T12:02:09.195Z,93312.00
2019-06-07T12:03:09.491Z,95264.00
2019-06-07T12:04:09.551Z,93792.00
2019-06-07T12:05:10.402Z,95872.00
2019-06-07T12:06:09.985Z,97120.00
2019-06-07T12:07:10.843Z,94912.00
2019-06-07T12:08:10.033Z,92320.00
2019-06-07T12:09:10.641Z,96640.00
2019-06-07T12:10:10.598Z,100224.00
2019-06-07T12:11:10.123Z,98272.00
2019-06-07T12:12:10.257Z,100576.00
2019-06-07T12:13:10.368Z,99616.00
2019-06-07T12:14:10.866Z,98432.00
2019-06-07T12:15:09.152Z,97440.00
2019-06-07T12:16:09.166Z,98400.00
2019-06-07T12:17:09.113Z,103648.00
2019-06-07T12:18:09.302Z,99136.00
2019-06-07T12:19:09.640Z,95968.00
2019-06-07T12:20:10.809Z,99136.00
2019-06-07T12:21:09.575Z,97728.00
2019-06-07T12:22:09.854Z,95264.00
2019-06-07T12:23:10.013Z,97248.00
2019-06-07T12:24:10.207Z,98912.00